Time;durP1;ratioP1;P1;durP2;ratioP2;P2;SDS_P1;SDS_P2;PMS_P1;PMS_P2;Temp;Humidity;BMP_temperature;BMP_pressure;BME280_temperature;BME280_humidity;BME280_pressure;Samples;Min_cycle;Max_cycle;Signal;HPM_P1;HPM_P2
2021/11/07 00:00:11;;;;;;;16.30;11.40;;;;;;;7.26;58.07;101775.27;117412;1184;23481;-60
2021/11/07 00:02:53;;;;;;;16.40;11.30;;;;;;;7.28;58.02;101778.98;117378;1184;21861;-60
2021/11/07 00:05:27;;;;;;;16.20;10.90;;;;;;;7.28;57.91;101786.84;117269;1183;21854;-59
2021/11/07 00:08:18;;;;;;;17.70;12.00;;;;;;;7.29;57.70;101786.33;117436;1185;21983;-59
2021/11/07 00:10:50;;;;;;;15.20;12.10;;;;;;;7.29;57.95;101784.40;117428;1186;22914;-60
2021/11/07 00:13:22;;;;;;;18.30;13.10;;;;;;;7.28;57.64;101780.38;117439;1182;21864;-59
2021/11/07 00:15:51;;;;;;;18.30;12.30;;;;;;;7.25;57.67;101775.05;117468;1183;21854;-60
2021/11/07 00:18:27;;;;;;;19.90;12.30;;;;;;;7.21;57.66;101786.14;117533;1185;22960;-60
2021/11/07 00:26:32;;;;;;;20.70;13.30;;;;;;;6.90;57.60;101795.33;117256;1185;23544;-59
2021/11/07 00:29:15;;;;;;;19.00;13.00;;;;;;;6.91;57.67;101784.33;117422;1185;24222;-60
2021/11/07 00:37:33;;;;;;;20.80;12.10;;;;;;;6.90;57.85;101781.17;117485;1185;23773;-60
2021/11/07 00:53:35;;;;;;;18.60;11.60;;;;;;;6.59;57.47;101764.02;117431;1186;23438;-60
2021/11/07 00:56:16;;;;;;;17.20;11.50;;;;;;;6.59;57.74;101756.69;117410;1185;23542;-60
2021/11/07 01:01:24;;;;;;;20.00;12.60;;;;;;;6.52;57.48;101758.59;117375;1182;22003;-60
2021/11/07 01:03:55;;;;;;;22.50;13.90;;;;;;;6.45;57.66;101756.82;117402;1185;23731;-59
2021/11/07 01:06:23;;;;;;;21.50;13.50;;;;;;;6.40;57.44;101756.88;117453;1182;21879;-60
2021/11/07 01:08:51;;;;;;;17.30;11.90;;;;;;;6.36;57.62;101750.31;117392;1182;22625;-60
2021/11/07 01:11:20;;;;;;;19.30;12.60;;;;;;;6.33;57.68;101746.23;117434;1182;23601;-59
2021/11/07 01:13:49;;;;;;;22.30;14.00;;;;;;;6.33;57.50;101745.70;117519;1185;23455;-61
2021/11/07 01:16:18;;;;;;;18.90;13.00;;;;;;;6.34;57.61;101740.85;117576;1186;21851;-61
2021/11/07 01:18:47;;;;;;;24.90;12.40;;;;;;;6.36;57.75;101738.30;117540;1184;23371;-60
2021/11/07 01:21:18;;;;;;;23.10;13.50;;;;;;;6.38;58.08;101744.11;117488;1176;21845;-59
2021/11/07 01:23:58;;;;;;;21.70;13.70;;;;;;;6.40;57.90;101753.39;117422;1186;21917;-60
2021/11/07 01:26:42;;;;;;;23.90;15.20;;;;;;;6.42;57.70;101756.56;117565;1186;22982;-59
2021/11/07 01:29:19;;;;;;;22.50;15.20;;;;;;;6.44;57.92;101758.89;117511;1186;21852;-59
2021/11/07 01:31:48;;;;;;;21.20;14.30;;;;;;;6.46;57.63;101757.03;117477;1182;23465;-60
2021/11/07 01:37:00;;;;;;;24.50;14.00;;;;;;;6.49;57.77;101742.80;117519;1182;23439;-59
2021/11/07 01:39:41;;;;;;;23.80;14.40;;;;;;;6.53;57.90;101730.35;117500;1186;23366;-60
2021/11/07 01:42:15;;;;;;;22.30;14.70;;;;;;;6.57;57.98;101743.90;117641;1184;21889;-60
2021/11/07 01:44:51;;;;;;;22.50;14.60;;;;;;;6.60;57.83;101753.05;117550;1185;21860;-60
2021/11/07 01:47:21;;;;;;;20.30;13.50;;;;;;;6.62;57.88;101729.20;117515;1184;23673;-59
2021/11/07 01:49:49;;;;;;;22.50;14.50;;;;;;;6.65;57.80;101719.49;117542;1186;22091;-59
2021/11/07 01:52:18;;;;;;;23.10;15.00;;;;;;;6.68;58.07;101727.77;117407;1185;22811;-60
2021/11/07 01:55:07;;;;;;;20.60;13.70;;;;;;;6.70;57.66;101740.04;117536;1182;22886;-60
2021/11/07 01:57:36;;;;;;;20.70;14.80;;;;;;;6.72;58.09;101728.05;117497;1186;24159;-61
2021/11/07 02:00:33;;;;;;;23.70;14.00;;;;;;;6.75;57.75;101718.33;117481;1185;22921;-60
2021/11/07 02:03:01;;;;;;;18.50;13.50;;;;;;;6.80;57.96;101729.82;117642;1185;23577;-60
2021/11/07 02:05:30;;;;;;;22.60;15.10;;;;;;;6.83;57.90;101731.14;117497;1186;23711;-60
2021/11/07 02:07:58;;;;;;;24.80;15.50;;;;;;;6.85;58.07;101728.90;117491;1186;22233;-59
2021/11/07 02:10:27;;;;;;;22.40;15.30;;;;;;;6.90;57.91;101724.47;117534;1185;21917;-60
2021/11/07 02:12:55;;;;;;;23.00;14.00;;;;;;;6.91;58.00;101715.93;117560;1182;23439;-60
2021/11/07 02:15:23;;;;;;;23.20;15.20;;;;;;;6.90;58.01;101715.93;117500;1182;21870;-60
2021/11/07 02:17:52;;;;;;;22.00;14.20;;;;;;;6.90;57.81;101720.63;117454;1184;21854;-59
2021/11/07 02:20:22;;;;;;;23.90;14.50;;;;;;;6.89;57.78;101722.52;117545;1182;22619;-59
2021/11/07 02:22:50;;;;;;;21.50;14.70;;;;;;;6.88;57.88;101732.45;117430;1185;22619;-60
2021/11/07 02:25:19;;;;;;;20.40;14.20;;;;;;;6.88;57.90;101732.81;117345;1183;22918;-60
2021/11/07 02:27:48;;;;;;;18.80;14.30;;;;;;;6.86;57.72;101722.27;117439;1184;21873;-60
2021/11/07 02:30:16;;;;;;;23.50;14.60;;;;;;;6.84;57.93;101728.34;117345;1185;21864;-60
2021/11/07 02:32:46;;;;;;;18.40;12.50;;;;;;;6.81;57.84;101720.79;117452;1185;23550;-61
2021/11/07 02:35:15;;;;;;;24.00;14.10;;;;;;;6.79;57.58;101716.17;117367;1185;22622;-59
2021/11/07 02:37:43;;;;;;;20.40;13.90;;;;;;;6.78;57.76;101721.90;117423;1185;21854;-59
2021/11/07 02:40:12;;;;;;;21.40;14.20;;;;;;;6.76;57.61;101720.13;117384;1179;22555;-61
2021/11/07 02:42:43;;;;;;;24.10;14.70;;;;;;;6.75;57.74;101723.77;117517;1182;22889;-60
2021/11/07 02:45:12;;;;;;;20.90;13.60;;;;;;;6.73;57.67;101725.09;117383;1185;22093;-61
2021/11/07 02:47:40;;;;;;;19.20;14.10;;;;;;;6.69;57.61;101726.06;117404;1186;21862;-61
2021/11/07 02:50:11;;;;;;;18.70;13.00;;;;;;;6.63;57.52;101721.54;117348;1186;23436;-60
2021/11/07 02:52:40;;;;;;;18.20;12.50;;;;;;;6.57;57.61;101717.71;117495;1183;21859;-60
2021/11/07 02:55:09;;;;;;;17.20;12.60;;;;;;;6.50;57.52;101726.79;117531;1185;23469;-60
2021/11/07 02:57:37;;;;;;;16.40;12.40;;;;;;;6.43;57.52;101729.91;117516;1179;21861;-59
2021/11/07 03:00:08;;;;;;;19.20;12.70;;;;;;;6.34;57.58;101731.98;117538;1176;21861;-58
2021/11/07 03:02:36;;;;;;;21.00;13.10;;;;;;;6.23;57.42;101741.75;117573;1185;21856;-58
2021/11/07 03:05:06;;;;;;;26.70;14.30;;;;;;;6.10;57.41;101737.92;117386;1184;21863;-60
2021/11/07 03:07:35;;;;;;;20.40;12.70;;;;;;;6.01;57.54;101738.70;117570;1186;22976;-61
2021/11/07 03:10:05;;;;;;;18.90;12.80;;;;;;;5.97;57.53;101741.00;117459;1179;21851;-58
2021/11/07 03:12:33;;;;;;;23.90;14.30;;;;;;;5.99;57.54;101741.93;117519;1185;23544;-59
2021/11/07 03:15:06;;;;;;;19.60;13.30;;;;;;;5.99;57.40;101739.85;117378;1179;23559;-60
2021/11/07 03:17:35;;;;;;;19.70;13.10;;;;;;;5.97;57.59;101731.42;117394;1183;22958;-60
2021/11/07 03:20:05;;;;;;;17.80;12.80;;;;;;;5.97;57.60;101721.84;117386;1186;23504;-59
2021/11/07 03:22:33;;;;;;;20.70;13.00;;;;;;;5.96;57.79;101723.05;117380;1183;22988;-58
2021/11/07 03:25:03;;;;;;;20.30;13.70;;;;;;;5.95;57.93;101730.33;117396;1185;23637;-60
2021/11/07 03:27:38;;;;;;;20.70;13.60;;;;;;;5.92;57.69;101719.82;117416;1186;23569;-58
2021/11/07 03:30:22;;;;;;;16.70;12.00;;;;;;;5.92;57.90;101715.27;117566;1183;21898;-60
2021/11/07 03:32:54;;;;;;;17.30;12.30;;;;;;;5.91;57.62;101711.25;117407;1184;23595;-60
2021/11/07 03:35:23;;;;;;;18.30;13.70;;;;;;;5.91;57.78;101713.16;117461;1186;21860;-60
2021/11/07 03:37:57;;;;;;;18.90;12.00;;;;;;;5.89;57.60;101708.73;117467;1186;21899;-59
2021/11/07 03:40:26;;;;;;;18.50;12.30;;;;;;;5.86;57.71;101701.52;117358;1182;23572;-58
2021/11/07 03:42:57;;;;;;;20.10;12.80;;;;;;;5.83;57.71;101699.86;117510;1182;22016;-60
2021/11/07 03:45:26;;;;;;;19.80;11.80;;;;;;;5.81;57.79;101702.59;117509;1184;21864;-60
2021/11/07 03:48:00;;;;;;;17.80;12.70;;;;;;;5.79;57.74;101706.70;117518;1185;23077;-60
2021/11/07 03:50:29;;;;;;;20.90;13.90;;;;;;;5.75;57.80;101705.55;117552;1184;21863;-59
2021/11/07 03:52:57;;;;;;;19.30;13.20;;;;;;;5.72;57.73;101707.39;117442;1183;21888;-60
2021/11/07 03:55:26;;;;;;;22.00;13.00;;;;;;;5.69;57.54;101709.06;117448;1185;23544;-59
2021/11/07 03:57:54;;;;;;;19.20;12.70;;;;;;;5.66;57.48;101710.17;117476;1186;22668;-60
2021/11/07 04:00:23;;;;;;;19.60;12.10;;;;;;;5.63;57.57;101703.98;117372;1186;23464;-60
2021/11/07 04:02:51;;;;;;;18.20;12.50;;;;;;;5.61;57.59;101696.08;117431;1186;21918;-58
2021/11/07 04:05:21;;;;;;;21.00;13.50;;;;;;;5.59;57.33;101700.20;117339;1185;23593;-58
2021/11/07 04:07:49;;;;;;;19.60;12.90;;;;;;;5.56;57.33;101703.59;117463;1182;21855;-58
2021/11/07 04:10:17;;;;;;;19.00;12.60;;;;;;;5.50;57.74;101706.75;117508;1182;23470;-60
2021/11/07 04:12:46;;;;;;;19.50;11.90;;;;;;;5.48;57.47;101706.69;117539;1182;22029;-58
2021/11/07 04:15:16;;;;;;;22.10;14.50;;;;;;;5.48;57.64;101701.64;117520;1185;21854;-60
2021/11/07 04:17:44;;;;;;;20.40;13.10;;;;;;;5.52;57.67;101699.65;117519;1186;22947;-58
2021/11/07 04:20:13;;;;;;;19.00;13.30;;;;;;;5.54;57.72;101700.59;117539;1185;21901;-60
2021/11/07 04:22:41;;;;;;;18.20;13.80;;;;;;;5.56;57.83;101700.81;117508;1185;21878;-60
2021/11/07 04:25:10;;;;;;;18.40;13.00;;;;;;;5.58;57.61;101700.20;117470;1184;23439;-58
2021/11/07 04:27:39;;;;;;;23.00;15.20;;;;;;;5.58;57.84;101701.23;117487;1182;21862;-58
2021/11/07 04:30:08;;;;;;;23.50;15.10;;;;;;;5.60;57.52;101694.67;117449;1183;21899;-58
2021/11/07 04:32:36;;;;;;;24.80;13.50;;;;;;;5.62;57.63;101680.09;117560;1185;22660;-58
2021/11/07 04:35:07;;;;;;;24.10;15.10;;;;;;;5.63;57.65;101677.00;117507;1183;23568;-58
2021/11/07 04:37:38;;;;;;;23.20;15.00;;;;;;;5.64;57.62;101682.27;117491;1186;22989;-57
2021/11/07 04:40:10;;;;;;;19.30;13.60;;;;;;;5.61;57.58;101685.30;117398;1186;23467;-59
2021/11/07 04:42:41;;;;;;;26.80;15.20;;;;;;;5.61;57.83;101694.52;117431;1186;23510;-57
2021/11/07 04:45:09;;;;;;;21.10;14.50;;;;;;;5.66;57.82;101697.45;117451;1184;23566;-57
2021/11/07 04:47:37;;;;;;;37.30;16.60;;;;;;;5.69;58.17;101692.50;117412;1186;22310;-60
2021/11/07 04:50:06;;;;;;;24.40;15.30;;;;;;;5.78;58.25;101694.82;117573;1185;22918;-57
2021/11/07 04:52:34;;;;;;;23.40;14.60;;;;;;;5.88;58.39;101700.52;117571;1182;21932;-59
2021/11/07 04:55:03;;;;;;;25.90;15.70;;;;;;;5.94;58.22;101707.48;117555;1183;23583;-60
2021/11/07 04:57:31;;;;;;;24.00;14.70;;;;;;;5.97;58.23;101714.52;117435;1185;23568;-59
2021/11/07 05:00:00;;;;;;;20.60;14.20;;;;;;;5.98;58.08;101712.45;117493;1185;24142;-58
2021/11/07 05:02:29;;;;;;;20.50;13.90;;;;;;;5.98;58.13;101712.81;117557;1184;23436;-58
2021/11/07 05:04:57;;;;;;;21.60;13.80;;;;;;;5.98;58.11;101710.54;117464;1183;23608;-59
2021/11/07 05:07:25;;;;;;;21.40;14.20;;;;;;;5.98;57.97;101706.35;117575;1184;23487;-60
2021/11/07 05:09:54;;;;;;;22.60;13.90;;;;;;;5.99;57.80;101697.15;117450;1186;21855;-57
2021/11/07 05:12:22;;;;;;;20.80;14.10;;;;;;;5.99;57.93;101694.52;117502;1185;21870;-59
2021/11/07 05:14:50;;;;;;;21.90;14.80;;;;;;;6.01;57.86;101704.05;117507;1182;23457;-60
2021/11/07 05:17:19;;;;;;;22.60;13.80;;;;;;;6.02;57.97;101714.69;117496;1183;21864;-59
2021/11/07 05:19:47;;;;;;;20.90;13.40;;;;;;;6.05;57.98;101719.48;117581;1176;21855;-58
2021/11/07 05:22:16;;;;;;;19.40;13.70;;;;;;;6.07;58.08;101716.59;117568;1182;23565;-58
2021/11/07 05:24:44;;;;;;;18.70;12.70;;;;;;;6.09;57.98;101712.10;117388;1180;22905;-59
2021/11/07 05:27:12;;;;;;;17.90;13.00;;;;;;;6.11;57.96;101706.58;117514;1183;21854;-58
2021/11/07 05:29:41;;;;;;;21.00;13.10;;;;;;;6.17;58.09;101703.45;117540;1182;23664;-59
2021/11/07 05:32:09;;;;;;;23.30;14.80;;;;;;;6.24;58.05;101705.02;117553;1185;22646;-59
2021/11/07 05:34:41;;;;;;;21.30;14.70;;;;;;;6.28;57.96;101703.56;117418;1182;21845;-58
2021/11/07 05:37:09;;;;;;;20.10;13.50;;;;;;;6.31;58.30;101702.75;117446;1183;21933;-58
2021/11/07 05:39:37;;;;;;;18.90;13.20;;;;;;;6.35;58.36;101707.57;117387;1180;21845;-58
2021/11/07 05:42:06;;;;;;;22.40;14.30;;;;;;;6.36;57.94;101718.76;117461;1185;24265;-59
2021/11/07 05:44:34;;;;;;;21.60;14.40;;;;;;;6.33;58.29;101715.54;117361;1182;23464;-60
2021/11/07 05:47:03;;;;;;;26.20;14.70;;;;;;;6.37;58.10;101703.63;117390;1185;21989;-60
2021/11/07 05:49:31;;;;;;;21.20;14.70;;;;;;;6.47;58.15;101699.33;117112;1185;23592;-59
2021/11/07 05:52:00;;;;;;;20.70;14.50;;;;;;;6.58;58.31;101701.89;117332;1186;24285;-59
2021/11/07 05:54:28;;;;;;;24.00;15.20;;;;;;;6.71;58.31;101698.19;117319;1185;23608;-60
2021/11/07 05:56:58;;;;;;;23.60;14.80;;;;;;;6.83;58.59;101700.07;117353;1185;23826;-59
2021/11/07 05:59:28;;;;;;;20.20;14.20;;;;;;;6.97;58.77;101695.49;117413;1185;22654;-60
2021/11/07 06:01:57;;;;;;;22.70;15.90;;;;;;;7.14;58.64;101686.11;117369;1186;22574;-59
2021/11/07 06:04:26;;;;;;;21.10;14.50;;;;;;;7.30;58.68;101680.36;117341;1186;21855;-59
2021/11/07 06:06:55;;;;;;;23.80;15.90;;;;;;;7.47;58.79;101681.08;117417;1182;24171;-59
2021/11/07 06:09:23;;;;;;;25.00;16.70;;;;;;;7.62;58.90;101679.64;117377;1183;21854;-59
2021/11/07 06:11:51;;;;;;;28.70;16.40;;;;;;;7.78;58.72;101677.70;117346;1186;21858;-59
2021/11/07 06:14:39;;;;;;;21.60;15.40;;;;;;;8.00;59.04;101674.45;117314;1185;21839;-61
2021/11/07 06:17:09;;;;;;;23.90;16.70;;;;;;;8.18;58.95;101674.60;117352;1183;23451;-59
2021/11/07 06:19:37;;;;;;;24.40;16.90;;;;;;;8.36;59.01;101672.14;117394;1186;23441;-59
2021/11/07 06:22:06;;;;;;;27.50;17.80;;;;;;;8.55;59.28;101673.19;117387;1185;23451;-60
2021/11/07 06:24:34;;;;;;;26.90;17.80;;;;;;;8.72;59.20;101673.29;117192;1185;21848;-60
2021/11/07 06:27:04;;;;;;;23.20;17.50;;;;;;;8.88;59.03;101669.70;117398;1186;21854;-58
2021/11/07 06:29:32;;;;;;;26.40;17.70;;;;;;;9.02;59.07;101658.52;117375;1182;23468;-59
2021/11/07 06:32:01;;;;;;;21.20;16.30;;;;;;;9.16;59.11;101655.91;117349;1185;23531;-59
2021/11/07 06:34:29;;;;;;;26.20;17.70;;;;;;;9.29;59.21;101651.19;117341;1185;21856;-59
2021/11/07 06:36:58;;;;;;;22.90;16.60;;;;;;;9.42;59.13;101642.25;117377;1186;22635;-61
2021/11/07 06:39:28;;;;;;;26.90;17.70;;;;;;;9.56;59.18;101641.89;117325;1186;24155;-62
2021/11/07 06:41:57;;;;;;;24.80;16.20;;;;;;;9.68;59.09;101644.66;117247;1182;24138;-60
2021/11/07 06:44:26;;;;;;;27.50;17.10;;;;;;;9.81;59.17;101665.14;117287;1182;22237;-60
2021/11/07 06:46:54;;;;;;;26.10;19.00;;;;;;;9.91;59.15;101669.64;117349;1186;21845;-61
2021/11/07 06:49:22;;;;;;;24.30;18.00;;;;;;;10.04;59.26;101662.07;117393;1183;23605;-62
2021/11/07 06:51:51;;;;;;;26.30;17.70;;;;;;;10.17;59.25;101661.50;117388;1186;23544;-61
2021/11/07 06:54:21;;;;;;;24.30;17.70;;;;;;;10.30;59.21;101662.14;117390;1182;23570;-59
2021/11/07 06:56:49;;;;;;;25.20;18.50;;;;;;;10.42;59.27;101663.50;117390;1185;21858;-59
2021/11/07 06:59:18;;;;;;;24.50;19.10;;;;;;;10.53;59.22;101660.80;117520;1186;23465;-61
2021/11/07 07:01:46;;;;;;;28.70;17.90;;;;;;;10.67;59.39;101651.61;117530;1182;23448;-61
2021/11/07 07:04:14;;;;;;;26.60;18.60;;;;;;;10.83;59.42;101650.66;117499;1185;24163;-59
2021/11/07 07:06:44;;;;;;;25.80;19.80;;;;;;;11.01;59.58;101648.52;117543;1185;23448;-61
2021/11/07 07:09:16;;;;;;;27.10;18.70;;;;;;;11.22;59.71;101651.61;117506;1185;22430;-59
2021/11/07 07:11:46;;;;;;;26.40;18.20;;;;;;;11.44;59.84;101658.40;117536;1183;23544;-58
2021/11/07 07:14:22;;;;;;;22.80;17.20;;;;;;;11.63;59.66;101659.19;117511;1185;21870;-61
2021/11/07 07:25:47;;;;;;;19.10;13.10;;;;;;;12.15;59.42;101635.95;117307;1185;21874;-59
2021/11/07 07:33:32;;;;;;;18.10;13.30;;;;;;;12.21;59.16;101617.48;117342;1183;24151;-61
2021/11/07 07:36:00;;;;;;;17.10;13.30;;;;;;;12.25;59.26;101623.46;117824;1183;21854;-61
2021/11/07 07:38:29;;;;;;;21.00;13.60;;;;;;;12.28;59.16;101619.96;117478;1182;23528;-61
2021/11/07 07:40:57;;;;;;;19.30;13.10;;;;;;;12.29;59.19;101616.95;117373;1183;23544;-59
2021/11/07 07:43:26;;;;;;;19.40;13.80;;;;;;;12.30;59.18;101609.93;117415;1185;21882;-61
2021/11/07 07:45:59;;;;;;;17.60;12.90;;;;;;;12.37;59.21;101606.76;117457;1183;22808;-61
2021/11/07 07:48:28;;;;;;;16.80;13.80;;;;;;;12.47;59.12;101605.52;117326;1185;21849;-59
2021/11/07 07:50:56;;;;;;;22.20;15.70;;;;;;;12.57;59.37;101600.58;117271;1186;23088;-61
2021/11/07 07:53:25;;;;;;;25.70;16.40;;;;;;;12.67;59.22;101594.76;117339;1179;21864;-59
2021/11/07 07:55:54;;;;;;;46.40;27.80;;;;;;;12.74;59.22;101598.45;117327;1185;23472;-61
2021/11/07 07:58:22;;;;;;;64.70;33.20;;;;;;;12.82;59.16;101602.48;117341;1186;23435;-61
2021/11/07 08:00:53;;;;;;;99.20;44.10;;;;;;;12.90;59.27;101601.93;117361;1186;21833;-61
2021/11/07 08:03:21;;;;;;;98.90;45.50;;;;;;;12.98;59.36;101599.10;117368;1186;23465;-61
2021/11/07 08:05:50;;;;;;;106.70;46.20;;;;;;;13.06;59.20;101591.49;117309;1183;22320;-60
2021/11/07 08:08:18;;;;;;;103.30;46.50;;;;;;;13.15;59.20;101581.07;117375;1186;21854;-61
2021/11/07 08:10:47;;;;;;;223.20;81.70;;;;;;;13.22;59.14;101571.00;117221;1186;23445;-59
2021/11/07 08:13:15;;;;;;;121.00;49.40;;;;;;;13.32;59.31;101567.77;117364;1179;21859;-59
2021/11/07 08:16:00;;;;;;;70.90;34.00;;;;;;;13.39;59.20;101562.46;117442;1185;24162;-59
2021/11/07 08:18:28;;;;;;;52.20;26.60;;;;;;;13.48;59.19;101563.14;117246;1186;24224;-61
2021/11/07 08:20:57;;;;;;;60.00;30.00;;;;;;;13.55;59.25;101569.46;117360;1186;23442;-61
2021/11/07 08:23:25;;;;;;;33.00;19.70;;;;;;;13.61;59.23;101568.90;117370;1177;24167;-61
2021/11/07 08:25:53;;;;;;;24.20;17.10;;;;;;;13.62;58.96;101569.77;117332;1186;23091;-59
2021/11/07 08:28:26;;;;;;;28.40;18.00;;;;;;;13.55;58.77;101563.81;117339;1185;23469;-59
2021/11/07 08:31:03;;;;;;;37.20;20.30;;;;;;;13.47;58.62;101561.20;117328;1182;23464;-60
2021/11/07 08:33:36;;;;;;;30.30;16.40;;;;;;;13.47;58.88;101565.09;117283;1186;23468;-62
2021/11/07 08:36:10;;;;;;;20.80;14.50;;;;;;;13.50;58.92;101569.13;117385;1186;22906;-59
2021/11/07 08:38:47;;;;;;;18.90;14.30;;;;;;;13.53;58.74;101571.58;117377;1180;21848;-60
2021/11/07 08:41:17;;;;;;;18.00;13.80;;;;;;;13.53;59.02;101572.64;117376;1186;24160;-62
2021/11/07 09:01:26;;;;;;;55.40;37.30;;;;;;;13.71;58.90;101526.33;117349;1183;22656;-62
2021/11/07 09:09:29;;;;;;;34.10;23.40;;;;;;;13.84;59.15;101504.71;117371;1184;22961;-59
2021/11/07 09:12:12;;;;;;;71.10;38.60;;;;;;;13.88;59.11;101501.67;117357;1183;23510;-62
2021/11/07 09:14:40;;;;;;;146.70;79.30;;;;;;;13.92;59.09;101495.98;117569;1183;21884;-60
2021/11/07 09:17:14;;;;;;;78.90;45.80;;;;;;;13.96;59.05;101491.73;117453;1184;21896;-61
2021/11/07 09:19:44;;;;;;;73.80;46.50;;;;;;;14.01;59.14;101478.09;117403;1185;21970;-62
2021/11/07 09:22:17;;;;;;;54.10;40.30;;;;;;;14.08;59.10;101474.70;117374;1185;23461;-62
2021/11/07 09:24:58;;;;;;;41.20;28.90;;;;;;;14.15;59.20;101471.80;117412;1182;22915;-60
2021/11/07 09:27:39;;;;;;;26.60;20.60;;;;;;;14.27;59.19;101476.45;117430;1186;21895;-59
2021/11/07 09:30:13;;;;;;;22.00;17.20;;;;;;;14.36;59.10;101481.83;117428;1185;21861;-60
2021/11/07 09:32:48;;;;;;;23.00;18.60;;;;;;;14.40;59.11;101476.65;117403;1183;22909;-59
2021/11/07 09:40:34;;;;;;;51.80;32.80;;;;;;;14.53;59.19;101454.61;117411;1186;23532;-62
2021/11/07 09:43:16;;;;;;;97.40;54.20;;;;;;;14.56;59.08;101450.89;117470;1185;22150;-62
2021/11/07 09:45:51;;;;;;;42.10;26.20;;;;;;;14.59;59.17;101447.29;117378;1182;23900;-59
2021/11/07 09:48:27;;;;;;;27.40;19.70;;;;;;;14.64;59.11;101429.75;117392;1182;22912;-59
2021/11/07 09:50:56;;;;;;;30.80;20.60;;;;;;;14.72;59.03;101419.63;117349;1184;21855;-59
2021/11/07 09:53:24;;;;;;;119.10;69.10;;;;;;;14.74;59.05;101423.13;117315;1185;23658;-62
2021/11/07 09:55:54;;;;;;;55.50;36.80;;;;;;;14.74;59.00;101427.38;117365;1183;21857;-59
2021/11/07 09:58:22;;;;;;;33.00;23.80;;;;;;;14.75;59.03;101418.54;117364;1181;21853;-62
2021/11/07 10:00:53;;;;;;;29.50;22.20;;;;;;;14.79;59.14;101398.34;117370;1185;24172;-59
2021/11/07 10:03:23;;;;;;;26.70;17.90;;;;;;;14.84;59.08;101392.08;117340;1185;21864;-59
2021/11/07 10:05:56;;;;;;;19.00;15.90;;;;;;;14.86;58.96;101398.93;117357;1180;23544;-60
2021/11/07 10:08:26;;;;;;;20.30;16.00;;;;;;;14.84;59.01;101397.36;117419;1183;23465;-59
2021/11/07 10:11:02;;;;;;;22.00;15.90;;;;;;;14.87;58.96;101397.34;117435;1183;22899;-60
2021/11/07 10:13:33;;;;;;;24.10;16.70;;;;;;;14.91;59.10;101389.69;117410;1182;21855;-58
2021/11/07 10:16:10;;;;;;;25.90;19.10;;;;;;;14.98;59.12;101381.11;117450;1186;24206;-62
2021/11/07 10:18:44;;;;;;;23.70;17.90;;;;;;;15.00;59.03;101384.60;117395;1183;21874;-60
2021/11/07 10:21:20;;;;;;;22.90;16.30;;;;;;;15.02;58.97;101380.15;117363;1186;24240;-58
2021/11/07 10:24:07;;;;;;;20.60;17.20;;;;;;;15.02;58.90;101381.93;117386;1184;22622;-62
2021/11/07 10:26:37;;;;;;;26.90;20.40;;;;;;;15.04;58.93;101371.46;117373;1182;22925;-62
2021/11/07 10:29:08;;;;;;;22.80;17.60;;;;;;;15.12;58.93;101360.57;117329;1183;24135;-59
2021/11/07 10:31:54;;;;;;;20.70;15.60;;;;;;;15.20;58.93;101343.84;117403;1184;21906;-62
2021/11/07 10:45:22;;;;;;;17.70;13.80;;;;;;;15.69;59.51;101350.61;117347;1182;23563;-58
2021/11/07 10:53:30;;;;;;;17.40;14.10;;;;;;;16.47;59.60;101325.20;117389;1182;23451;-60
2021/11/07 10:56:03;;;;;;;19.60;15.50;;;;;;;16.61;59.53;101313.71;117395;1182;23817;-63
2021/11/07 10:58:37;;;;;;;19.10;15.00;;;;;;;16.72;59.31;101301.96;117302;1186;21866;-63
2021/11/07 11:01:08;;;;;;;16.70;14.50;;;;;;;16.72;59.19;101303.20;117323;1186;23507;-63
2021/11/07 11:03:44;;;;;;;16.10;13.50;;;;;;;16.77;59.16;101308.58;117343;1184;21885;-62
2021/11/07 11:06:13;;;;;;;17.30;13.50;;;;;;;16.82;59.11;101316.96;117348;1181;22914;-63
2021/11/07 11:08:51;;;;;;;16.10;12.10;;;;;;;16.81;58.96;101311.13;117355;1183;23547;-59
2021/11/07 11:11:35;;;;;;;15.20;13.20;;;;;;;16.81;59.12;101305.46;117382;1183;23452;-63
2021/11/07 11:14:19;;;;;;;18.00;13.80;;;;;;;16.76;58.78;101305.58;117447;1186;21857;-59
2021/11/07 11:22:09;;;;;;;17.10;12.50;;;;;;;16.62;58.70;101282.52;117335;1183;24166;-62
2021/11/07 11:27:27;;;;;;;15.00;11.40;;;;;;;16.43;58.65;101279.40;117343;1182;24265;-60
2021/11/07 11:32:57;;;;;;;13.70;11.10;;;;;;;16.25;58.66;101261.21;117365;1186;22004;-59
2021/11/07 11:38:17;;;;;;;17.40;12.20;;;;;;;16.26;58.85;101235.33;117329;1176;24163;-62
2021/11/07 11:41:02;;;;;;;21.00;15.20;;;;;;;16.28;58.82;101227.67;117356;1182;24156;-58
2021/11/07 11:43:39;;;;;;;20.70;15.10;;;;;;;16.26;58.79;101223.64;117363;1176;21858;-63
2021/11/07 11:46:20;;;;;;;19.40;14.00;;;;;;;16.24;58.84;101216.61;117447;1182;23528;-62
2021/11/07 11:51:46;;;;;;;15.50;11.50;;;;;;;16.15;58.93;101202.11;117438;1185;23468;-62
2021/11/07 12:02:35;;;;;;;11.60;9.20;;;;;;;15.89;58.96;101201.95;117341;1185;21867;-61
2021/11/07 12:06:02;;;;;;;13.80;10.80;;;;;;;15.86;58.82;101204.31;117307;1183;21884;-62
2021/11/07 12:08:12;;;;;;;14.30;10.70;;;;;;;15.83;58.73;101191.25;117284;1185;21866;-62
2021/11/07 12:13:41;;;;;;;13.00;10.80;;;;;;;15.77;58.76;101192.10;117360;1184;21905;-62
2021/11/07 12:16:23;;;;;;;14.70;11.00;;;;;;;15.69;58.78;101186.04;117449;1183;24146;-62
2021/11/07 12:19:08;;;;;;;14.00;11.10;;;;;;;15.62;58.73;101194.18;117414;1186;23538;-63
2021/11/07 12:21:54;;;;;;;14.40;10.90;;;;;;;15.61;58.79;101198.96;117405;1183;22908;-59
2021/11/07 12:24:27;;;;;;;14.60;11.00;;;;;;;15.61;58.94;101185.86;117396;1182;21858;-63
2021/11/07 12:27:26;;;;;;;14.10;10.80;;;;;;;15.60;58.95;101182.17;117386;1185;21858;-62
2021/11/07 12:30:25;;;;;;;14.10;11.70;;;;;;;15.60;58.94;101183.94;117394;1185;24747;-62
2021/11/07 12:33:03;;;;;;;16.80;12.80;;;;;;;15.59;58.90;101181.67;116891;1189;24204;-59
2021/11/07 12:35:37;;;;;;;16.70;12.40;;;;;;;15.58;58.90;101179.58;116877;1189;21867;-62
2021/11/07 12:41:06;;;;;;;18.80;12.70;;;;;;;15.50;58.89;101175.13;116853;1189;24638;-62
2021/11/07 12:43:40;;;;;;;20.30;13.70;;;;;;;15.50;58.91;101180.42;116879;1186;21864;-63
2021/11/07 12:49:16;;;;;;;18.30;13.20;;;;;;;15.51;58.84;101162.02;116768;1189;21870;-59
2021/11/07 12:52:05;;;;;;;15.90;13.20;;;;;;;15.51;58.88;101152.27;116837;1186;22831;-61
2021/11/07 12:54:40;;;;;;;15.20;13.20;;;;;;;15.55;58.84;101156.30;116779;1189;22905;-60
2021/11/07 12:57:15;;;;;;;14.00;11.80;;;;;;;15.57;58.94;101147.39;116929;1189;21862;-63
2021/11/07 12:59:47;;;;;;;14.60;11.50;;;;;;;15.58;58.89;101140.46;116848;1189;23437;-62
2021/11/07 13:02:19;;;;;;;18.10;12.90;;;;;;;15.57;58.88;101141.57;116862;1186;22912;-62
2021/11/07 13:05:21;;;;;;;17.10;11.90;;;;;;;15.55;58.80;101132.75;116968;1189;23528;-59
2021/11/07 13:08:05;;;;;;;14.80;12.70;;;;;;;15.53;58.74;101119.70;116895;1186;23532;-62
2021/11/07 13:11:01;;;;;;;16.00;12.50;;;;;;;15.47;58.82;101107.62;117276;1186;23556;-59
2021/11/07 13:29:51;;;;;;;20.90;14.20;;;;;;;15.38;58.76;101044.71;117349;1184;22034;-59
2021/11/07 13:32:31;;;;;;;18.00;13.90;;;;;;;15.36;58.78;101034.83;117392;1185;23440;-62
2021/11/07 13:35:09;;;;;;;19.70;15.20;;;;;;;15.34;58.76;101031.86;117488;1186;22945;-59
2021/11/07 13:37:45;;;;;;;21.60;14.40;;;;;;;15.31;58.76;101030.34;117344;1185;21861;-61
2021/11/07 13:40:27;;;;;;;18.40;13.90;;;;;;;15.29;58.83;101028.07;117339;1182;23547;-59
2021/11/07 13:43:07;;;;;;;20.70;13.50;;;;;;;15.33;58.87;101016.52;117347;1182;24162;-62
2021/11/07 13:45:39;;;;;;;18.70;12.70;;;;;;;15.35;58.83;101016.12;117368;1182;21858;-59
2021/11/07 13:48:16;;;;;;;15.50;12.20;;;;;;;15.35;58.84;101022.31;117495;1185;23432;-63